sensor_id;sensor_type;location;lat;lon;timestamp;P1;durP1;ratioP1;P2;durP2;ratioP2
76284;SDS011;71676;50.998;7.098;2024-01-11T00:01:58;24.98;;;13.80;;
76284;SDS011;71676;50.998;7.098;2024-01-11T00:04:26;29.08;;;14.48;;
76284;SDS011;71676;50.998;7.098;2024-01-11T00:06:53;27.17;;;14.55;;
76284;SDS011;71676;50.998;7.098;2024-01-11T00:09:19;29.85;;;14.88;;
76284;SDS011;71676;50.998;7.098;2024-01-11T00:11:46;27.67;;;13.80;;
76284;SDS011;71676;50.998;7.098;2024-01-11T00:14:13;27.70;;;14.40;;
76284;SDS011;71676;50.998;7.098;2024-01-11T00:16:40;28.08;;;14.10;;
76284;SDS011;71676;50.998;7.098;2024-01-11T00:19:07;33.22;;;14.85;;
76284;SDS011;71676;50.998;7.098;2024-01-11T00:21:36;30.30;;;15.35;;
76284;SDS011;71676;50.998;7.098;2024-01-11T00:24:02;32.42;;;14.38;;
76284;SDS011;71676;50.998;7.098;2024-01-11T00:28:55;35.40;;;17.52;;
76284;SDS011;71676;50.998;7.098;2024-01-11T00:31:22;36.80;;;15.48;;
76284;SDS011;71676;50.998;7.098;2024-01-11T00:33:49;33.70;;;17.63;;
76284;SDS011;71676;50.998;7.098;2024-01-11T00:36:17;32.83;;;17.33;;
76284;SDS011;71676;50.998;7.098;2024-01-11T00:38:46;33.55;;;15.98;;
76284;SDS011;71676;50.998;7.098;2024-01-11T00:41:12;37.95;;;15.93;;
76284;SDS011;71676;50.998;7.098;2024-01-11T00:46:05;26.15;;;13.95;;
76284;SDS011;71676;50.998;7.098;2024-01-11T00:48:32;35.80;;;15.73;;
76284;SDS011;71676;50.998;7.098;2024-01-11T00:50:59;30.52;;;15.13;;
76284;SDS011;71676;50.998;7.098;2024-01-11T00:53:25;30.63;;;15.25;;
76284;SDS011;71676;50.998;7.098;2024-01-11T00:55:56;28.02;;;14.93;;
76284;SDS011;71676;50.998;7.098;2024-01-11T00:58:23;29.90;;;14.95;;
76284;SDS011;71676;50.998;7.098;2024-01-11T01:00:50;26.27;;;14.80;;
76284;SDS011;71676;50.998;7.098;2024-01-11T01:03:17;28.75;;;15.30;;
76284;SDS011;71676;50.998;7.098;2024-01-11T01:08:11;27.58;;;14.52;;
76284;SDS011;71676;50.998;7.098;2024-01-11T01:13:05;25.00;;;13.30;;
76284;SDS011;71676;50.998;7.098;2024-01-11T01:15:32;31.77;;;15.90;;
76284;SDS011;71676;50.998;7.098;2024-01-11T01:17:58;28.13;;;14.93;;
76284;SDS011;71676;50.998;7.098;2024-01-11T01:20:25;28.73;;;13.95;;
76284;SDS011;71676;50.998;7.098;2024-01-11T01:22:52;31.20;;;15.55;;
76284;SDS011;71676;50.998;7.098;2024-01-11T01:25:19;29.42;;;14.77;;
76284;SDS011;71676;50.998;7.098;2024-01-11T01:27:45;26.38;;;14.75;;
76284;SDS011;71676;50.998;7.098;2024-01-11T01:30:14;26.38;;;14.65;;
76284;SDS011;71676;50.998;7.098;2024-01-11T01:32:41;29.70;;;14.77;;
76284;SDS011;71676;50.998;7.098;2024-01-11T01:35:07;29.90;;;15.85;;
76284;SDS011;71676;50.998;7.098;2024-01-11T01:37:34;28.60;;;15.75;;
76284;SDS011;71676;50.998;7.098;2024-01-11T01:40:01;32.53;;;15.10;;
76284;SDS011;71676;50.998;7.098;2024-01-11T01:42:27;26.30;;;13.95;;
76284;SDS011;71676;50.998;7.098;2024-01-11T01:44:54;33.13;;;15.93;;
76284;SDS011;71676;50.998;7.098;2024-01-11T01:47:22;30.83;;;14.52;;
76284;SDS011;71676;50.998;7.098;2024-01-11T01:49:49;26.33;;;12.95;;
76284;SDS011;71676;50.998;7.098;2024-01-11T01:52:16;25.83;;;13.48;;
76284;SDS011;71676;50.998;7.098;2024-01-11T01:54:43;27.75;;;15.00;;
76284;SDS011;71676;50.998;7.098;2024-01-11T01:57:09;28.42;;;14.30;;
76284;SDS011;71676;50.998;7.098;2024-01-11T01:59:37;25.55;;;14.63;;
76284;SDS011;71676;50.998;7.098;2024-01-11T02:02:05;30.00;;;14.98;;
76284;SDS011;71676;50.998;7.098;2024-01-11T02:04:33;26.35;;;14.30;;
76284;SDS011;71676;50.998;7.098;2024-01-11T02:07:01;26.25;;;13.90;;
76284;SDS011;71676;50.998;7.098;2024-01-11T02:09:29;25.92;;;14.65;;
76284;SDS011;71676;50.998;7.098;2024-01-11T02:11:56;26.30;;;14.23;;
76284;SDS011;71676;50.998;7.098;2024-01-11T02:14:24;30.00;;;15.20;;
76284;SDS011;71676;50.998;7.098;2024-01-11T02:16:51;29.98;;;15.07;;
76284;SDS011;71676;50.998;7.098;2024-01-11T02:19:18;27.90;;;14.88;;
76284;SDS011;71676;50.998;7.098;2024-01-11T02:21:48;28.70;;;14.60;;
76284;SDS011;71676;50.998;7.098;2024-01-11T02:24:21;26.75;;;14.52;;
76284;SDS011;71676;50.998;7.098;2024-01-11T02:26:57;30.20;;;13.50;;
76284;SDS011;71676;50.998;7.098;2024-01-11T02:29:26;27.88;;;13.10;;
76284;SDS011;71676;50.998;7.098;2024-01-11T02:31:53;29.85;;;12.48;;
76284;SDS011;71676;50.998;7.098;2024-01-11T02:34:20;31.73;;;14.88;;
76284;SDS011;71676;50.998;7.098;2024-01-11T02:36:47;30.05;;;14.13;;
76284;SDS011;71676;50.998;7.098;2024-01-11T02:39:14;27.58;;;14.77;;
76284;SDS011;71676;50.998;7.098;2024-01-11T02:41:44;26.13;;;14.18;;
76284;SDS011;71676;50.998;7.098;2024-01-11T02:44:11;23.45;;;12.75;;
76284;SDS011;71676;50.998;7.098;2024-01-11T02:46:38;28.10;;;13.07;;
76284;SDS011;71676;50.998;7.098;2024-01-11T02:49:04;24.50;;;12.48;;
76284;SDS011;71676;50.998;7.098;2024-01-11T02:51:31;25.58;;;12.27;;
76284;SDS011;71676;50.998;7.098;2024-01-11T02:53:57;26.00;;;13.07;;
76284;SDS011;71676;50.998;7.098;2024-01-11T02:56:24;24.30;;;13.30;;
76284;SDS011;71676;50.998;7.098;2024-01-11T02:58:52;27.45;;;13.48;;
76284;SDS011;71676;50.998;7.098;2024-01-11T03:01:19;24.92;;;12.98;;
76284;SDS011;71676;50.998;7.098;2024-01-11T03:03:45;26.38;;;12.55;;
76284;SDS011;71676;50.998;7.098;2024-01-11T03:06:12;26.80;;;13.63;;
76284;SDS011;71676;50.998;7.098;2024-01-11T03:08:39;22.10;;;10.82;;
76284;SDS011;71676;50.998;7.098;2024-01-11T03:11:05;27.80;;;13.52;;
76284;SDS011;71676;50.998;7.098;2024-01-11T03:16:00;23.73;;;12.63;;
76284;SDS011;71676;50.998;7.098;2024-01-11T03:18:26;26.67;;;12.93;;
76284;SDS011;71676;50.998;7.098;2024-01-11T03:20:55;22.98;;;12.40;;
76284;SDS011;71676;50.998;7.098;2024-01-11T03:23:21;28.05;;;15.45;;
76284;SDS011;71676;50.998;7.098;2024-01-11T03:25:48;25.85;;;13.25;;
76284;SDS011;71676;50.998;7.098;2024-01-11T03:28:15;28.90;;;13.73;;
76284;SDS011;71676;50.998;7.098;2024-01-11T03:30:41;25.23;;;11.88;;
76284;SDS011;71676;50.998;7.098;2024-01-11T03:33:10;28.23;;;13.35;;
76284;SDS011;71676;50.998;7.098;2024-01-11T03:35:36;25.40;;;11.60;;
76284;SDS011;71676;50.998;7.098;2024-01-11T03:38:03;24.88;;;12.68;;
76284;SDS011;71676;50.998;7.098;2024-01-11T03:40:30;23.40;;;12.27;;
76284;SDS011;71676;50.998;7.098;2024-01-11T03:42:57;28.13;;;12.68;;
76284;SDS011;71676;50.998;7.098;2024-01-11T03:45:23;23.63;;;12.25;;
76284;SDS011;71676;50.998;7.098;2024-01-11T03:47:50;22.73;;;11.40;;
76284;SDS011;71676;50.998;7.098;2024-01-11T03:50:18;23.73;;;12.07;;
76284;SDS011;71676;50.998;7.098;2024-01-11T03:52:45;25.17;;;12.65;;
76284;SDS011;71676;50.998;7.098;2024-01-11T03:55:11;27.50;;;11.50;;
76284;SDS011;71676;50.998;7.098;2024-01-11T03:57:38;24.60;;;12.10;;
76284;SDS011;71676;50.998;7.098;2024-01-11T04:00:05;24.65;;;12.48;;
76284;SDS011;71676;50.998;7.098;2024-01-11T04:02:33;26.35;;;12.95;;
76284;SDS011;71676;50.998;7.098;2024-01-11T04:04:59;23.17;;;11.18;;
76284;SDS011;71676;50.998;7.098;2024-01-11T04:07:27;23.02;;;12.60;;
76284;SDS011;71676;50.998;7.098;2024-01-11T04:09:54;26.05;;;12.50;;
76284;SDS011;71676;50.998;7.098;2024-01-11T04:12:21;26.00;;;12.27;;
76284;SDS011;71676;50.998;7.098;2024-01-11T04:14:47;25.73;;;12.15;;
76284;SDS011;71676;50.998;7.098;2024-01-11T04:17:14;24.50;;;12.55;;
76284;SDS011;71676;50.998;7.098;2024-01-11T04:19:40;26.35;;;11.23;;
76284;SDS011;71676;50.998;7.098;2024-01-11T04:24:35;26.27;;;13.05;;
76284;SDS011;71676;50.998;7.098;2024-01-11T04:27:02;25.10;;;12.85;;
76284;SDS011;71676;50.998;7.098;2024-01-11T04:29:29;24.10;;;12.32;;
76284;SDS011;71676;50.998;7.098;2024-01-11T04:31:55;23.02;;;11.32;;
76284;SDS011;71676;50.998;7.098;2024-01-11T04:34:23;29.00;;;12.82;;
76284;SDS011;71676;50.998;7.098;2024-01-11T04:36:50;26.00;;;13.30;;
76284;SDS011;71676;50.998;7.098;2024-01-11T04:39:16;29.67;;;13.40;;
76284;SDS011;71676;50.998;7.098;2024-01-11T04:41:44;25.23;;;13.88;;
76284;SDS011;71676;50.998;7.098;2024-01-11T04:44:11;29.98;;;13.55;;
76284;SDS011;71676;50.998;7.098;2024-01-11T04:46:37;26.73;;;13.40;;
76284;SDS011;71676;50.998;7.098;2024-01-11T04:49:04;23.23;;;13.20;;
76284;SDS011;71676;50.998;7.098;2024-01-11T04:51:31;28.90;;;12.75;;
76284;SDS011;71676;50.998;7.098;2024-01-11T04:53:57;28.63;;;12.90;;
76284;SDS011;71676;50.998;7.098;2024-01-11T04:56:24;28.67;;;14.43;;
76284;SDS011;71676;50.998;7.098;2024-01-11T04:58:52;23.50;;;13.10;;
76284;SDS011;71676;50.998;7.098;2024-01-11T05:01:18;26.23;;;14.32;;
76284;SDS011;71676;50.998;7.098;2024-01-11T05:03:45;28.42;;;13.45;;
76284;SDS011;71676;50.998;7.098;2024-01-11T05:06:15;25.13;;;12.55;;
76284;SDS011;71676;50.998;7.098;2024-01-11T05:08:42;27.42;;;13.20;;
76284;SDS011;71676;50.998;7.098;2024-01-11T05:13:40;28.10;;;12.35;;
76284;SDS011;71676;50.998;7.098;2024-01-11T05:16:08;26.63;;;13.35;;
76284;SDS011;71676;50.998;7.098;2024-01-11T05:18:44;27.42;;;12.30;;
76284;SDS011;71676;50.998;7.098;2024-01-11T05:21:10;27.83;;;12.82;;
76284;SDS011;71676;50.998;7.098;2024-01-11T05:23:37;24.00;;;12.05;;
76284;SDS011;71676;50.998;7.098;2024-01-11T05:26:03;29.40;;;13.68;;
76284;SDS011;71676;50.998;7.098;2024-01-11T05:28:30;29.35;;;14.30;;
76284;SDS011;71676;50.998;7.098;2024-01-11T05:30:57;27.48;;;13.55;;
76284;SDS011;71676;50.998;7.098;2024-01-11T05:33:25;26.63;;;12.80;;
76284;SDS011;71676;50.998;7.098;2024-01-11T05:35:51;27.60;;;15.25;;
76284;SDS011;71676;50.998;7.098;2024-01-11T05:38:18;31.42;;;15.38;;
76284;SDS011;71676;50.998;7.098;2024-01-11T05:40:45;27.02;;;13.30;;
76284;SDS011;71676;50.998;7.098;2024-01-11T05:43:12;26.55;;;13.98;;
76284;SDS011;71676;50.998;7.098;2024-01-11T05:45:38;28.38;;;14.10;;
76284;SDS011;71676;50.998;7.098;2024-01-11T05:50:33;29.33;;;12.77;;
76284;SDS011;71676;50.998;7.098;2024-01-11T05:53:00;27.02;;;13.77;;
76284;SDS011;71676;50.998;7.098;2024-01-11T05:55:28;29.50;;;15.05;;
76284;SDS011;71676;50.998;7.098;2024-01-11T05:57:54;27.13;;;14.23;;
76284;SDS011;71676;50.998;7.098;2024-01-11T06:00:21;28.58;;;14.20;;
76284;SDS011;71676;50.998;7.098;2024-01-11T06:02:48;28.73;;;12.55;;
76284;SDS011;71676;50.998;7.098;2024-01-11T06:05:15;23.67;;;13.20;;
76284;SDS011;71676;50.998;7.098;2024-01-11T06:10:09;24.33;;;12.40;;
76284;SDS011;71676;50.998;7.098;2024-01-11T06:12:36;26.42;;;13.63;;
76284;SDS011;71676;50.998;7.098;2024-01-11T06:15:03;29.65;;;13.48;;
76284;SDS011;71676;50.998;7.098;2024-01-11T06:17:30;28.30;;;13.20;;
76284;SDS011;71676;50.998;7.098;2024-01-11T06:19:57;26.63;;;13.48;;
76284;SDS011;71676;50.998;7.098;2024-01-11T06:22:23;26.98;;;13.80;;
76284;SDS011;71676;50.998;7.098;2024-01-11T06:24:51;30.60;;;14.73;;
76284;SDS011;71676;50.998;7.098;2024-01-11T06:27:18;25.20;;;12.90;;
76284;SDS011;71676;50.998;7.098;2024-01-11T06:29:44;25.73;;;13.77;;
76284;SDS011;71676;50.998;7.098;2024-01-11T06:32:14;27.25;;;14.43;;
76284;SDS011;71676;50.998;7.098;2024-01-11T06:34:41;27.30;;;13.43;;
76284;SDS011;71676;50.998;7.098;2024-01-11T06:37:10;25.48;;;12.32;;
76284;SDS011;71676;50.998;7.098;2024-01-11T06:39:37;27.95;;;13.90;;
76284;SDS011;71676;50.998;7.098;2024-01-11T06:42:05;24.98;;;13.30;;
76284;SDS011;71676;50.998;7.098;2024-01-11T06:44:32;25.95;;;13.80;;
76284;SDS011;71676;50.998;7.098;2024-01-11T06:46:58;30.30;;;13.63;;
76284;SDS011;71676;50.998;7.098;2024-01-11T06:49:26;29.10;;;13.63;;
76284;SDS011;71676;50.998;7.098;2024-01-11T06:51:53;26.38;;;13.68;;
76284;SDS011;71676;50.998;7.098;2024-01-11T06:54:20;30.55;;;12.98;;
76284;SDS011;71676;50.998;7.098;2024-01-11T06:56:46;27.42;;;13.90;;
76284;SDS011;71676;50.998;7.098;2024-01-11T07:01:41;26.63;;;13.27;;
76284;SDS011;71676;50.998;7.098;2024-01-11T07:04:07;24.30;;;12.68;;
76284;SDS011;71676;50.998;7.098;2024-01-11T07:06:34;26.23;;;12.95;;
76284;SDS011;71676;50.998;7.098;2024-01-11T07:09:01;26.52;;;13.30;;
76284;SDS011;71676;50.998;7.098;2024-01-11T07:11:28;30.05;;;14.85;;
76284;SDS011;71676;50.998;7.098;2024-01-11T07:13:54;35.15;;;15.30;;
76284;SDS011;71676;50.998;7.098;2024-01-11T07:16:22;29.58;;;14.10;;
76284;SDS011;71676;50.998;7.098;2024-01-11T07:18:49;35.08;;;14.45;;
76284;SDS011;71676;50.998;7.098;2024-01-11T07:21:19;26.50;;;14.35;;
76284;SDS011;71676;50.998;7.098;2024-01-11T07:23:48;30.88;;;15.52;;
76284;SDS011;71676;50.998;7.098;2024-01-11T07:26:14;29.70;;;15.52;;
76284;SDS011;71676;50.998;7.098;2024-01-11T07:28:41;30.73;;;14.88;;
76284;SDS011;71676;50.998;7.098;2024-01-11T07:31:08;37.80;;;14.60;;
76284;SDS011;71676;50.998;7.098;2024-01-11T07:33:37;28.40;;;13.32;;
76284;SDS011;71676;50.998;7.098;2024-01-11T07:36:05;29.20;;;14.65;;
76284;SDS011;71676;50.998;7.098;2024-01-11T07:38:32;27.20;;;14.73;;
76284;SDS011;71676;50.998;7.098;2024-01-11T07:40:59;29.80;;;15.68;;
76284;SDS011;71676;50.998;7.098;2024-01-11T07:43:26;29.90;;;14.63;;
76284;SDS011;71676;50.998;7.098;2024-01-11T07:45:53;34.25;;;16.42;;
76284;SDS011;71676;50.998;7.098;2024-01-11T07:48:21;30.13;;;15.18;;
76284;SDS011;71676;50.998;7.098;2024-01-11T07:50:49;32.50;;;16.73;;
76284;SDS011;71676;50.998;7.098;2024-01-11T07:53:16;31.90;;;15.13;;
76284;SDS011;71676;50.998;7.098;2024-01-11T07:55:43;32.22;;;16.05;;
76284;SDS011;71676;50.998;7.098;2024-01-11T07:58:12;32.72;;;15.88;;
76284;SDS011;71676;50.998;7.098;2024-01-11T08:00:40;32.33;;;15.70;;
76284;SDS011;71676;50.998;7.098;2024-01-11T08:03:06;32.33;;;17.13;;
76284;SDS011;71676;50.998;7.098;2024-01-11T08:05:33;29.92;;;15.10;;
76284;SDS011;71676;50.998;7.098;2024-01-11T08:10:28;29.02;;;15.27;;
76284;SDS011;71676;50.998;7.098;2024-01-11T08:12:56;29.10;;;14.40;;
76284;SDS011;71676;50.998;7.098;2024-01-11T08:15:24;31.35;;;16.13;;
76284;SDS011;71676;50.998;7.098;2024-01-11T08:17:51;28.00;;;15.13;;
76284;SDS011;71676;50.998;7.098;2024-01-11T08:20:19;31.15;;;15.18;;
76284;SDS011;71676;50.998;7.098;2024-01-11T08:25:14;29.27;;;14.13;;
76284;SDS011;71676;50.998;7.098;2024-01-11T08:27:41;28.02;;;14.90;;
76284;SDS011;71676;50.998;7.098;2024-01-11T08:32:34;28.73;;;14.38;;
76284;SDS011;71676;50.998;7.098;2024-01-11T08:35:04;25.88;;;14.32;;
76284;SDS011;71676;50.998;7.098;2024-01-11T08:37:31;26.92;;;14.90;;
76284;SDS011;71676;50.998;7.098;2024-01-11T08:39:58;28.08;;;14.73;;
76284;SDS011;71676;50.998;7.098;2024-01-11T08:42:26;35.00;;;16.77;;
76284;SDS011;71676;50.998;7.098;2024-01-11T08:44:53;34.75;;;15.23;;
76284;SDS011;71676;50.998;7.098;2024-01-11T08:47:20;32.90;;;16.20;;
76284;SDS011;71676;50.998;7.098;2024-01-11T08:49:46;31.00;;;16.50;;
76284;SDS011;71676;50.998;7.098;2024-01-11T08:52:13;33.97;;;16.30;;
76284;SDS011;71676;50.998;7.098;2024-01-11T08:54:39;34.97;;;16.65;;
76284;SDS011;71676;50.998;7.098;2024-01-11T08:57:06;33.13;;;17.17;;
76284;SDS011;71676;50.998;7.098;2024-01-11T08:59:34;34.92;;;16.17;;
76284;SDS011;71676;50.998;7.098;2024-01-11T09:02:01;33.00;;;16.88;;
76284;SDS011;71676;50.998;7.098;2024-01-11T09:04:27;29.98;;;15.70;;
76284;SDS011;71676;50.998;7.098;2024-01-11T09:06:54;35.67;;;16.77;;
76284;SDS011;71676;50.998;7.098;2024-01-11T09:09:22;32.75;;;16.63;;
76284;SDS011;71676;50.998;7.098;2024-01-11T09:11:48;33.30;;;16.55;;
76284;SDS011;71676;50.998;7.098;2024-01-11T09:16:43;29.10;;;13.93;;
76284;SDS011;71676;50.998;7.098;2024-01-11T09:19:11;32.53;;;16.48;;
76284;SDS011;71676;50.998;7.098;2024-01-11T09:24:04;29.05;;;15.13;;
76284;SDS011;71676;50.998;7.098;2024-01-11T09:26:31;30.38;;;15.00;;
76284;SDS011;71676;50.998;7.098;2024-01-11T09:28:57;32.47;;;16.63;;
76284;SDS011;71676;50.998;7.098;2024-01-11T09:31:24;33.58;;;16.33;;
76284;SDS011;71676;50.998;7.098;2024-01-11T09:33:52;32.80;;;16.70;;
76284;SDS011;71676;50.998;7.098;2024-01-11T09:36:19;31.30;;;16.42;;
76284;SDS011;71676;50.998;7.098;2024-01-11T09:38:45;33.53;;;15.73;;
76284;SDS011;71676;50.998;7.098;2024-01-11T09:41:13;29.30;;;15.30;;
76284;SDS011;71676;50.998;7.098;2024-01-11T09:43:40;32.08;;;16.65;;
76284;SDS011;71676;50.998;7.098;2024-01-11T09:46:08;37.80;;;17.15;;
76284;SDS011;71676;50.998;7.098;2024-01-11T09:48:37;36.63;;;16.05;;
76284;SDS011;71676;50.998;7.098;2024-01-11T09:51:07;31.38;;;17.25;;
76284;SDS011;71676;50.998;7.098;2024-01-11T09:53:36;34.10;;;17.45;;
76284;SDS011;71676;50.998;7.098;2024-01-11T09:56:04;34.80;;;18.17;;
76284;SDS011;71676;50.998;7.098;2024-01-11T09:58:35;35.00;;;17.38;;
76284;SDS011;71676;50.998;7.098;2024-01-11T10:01:03;33.90;;;16.75;;
76284;SDS011;71676;50.998;7.098;2024-01-11T10:03:35;31.08;;;16.00;;
76284;SDS011;71676;50.998;7.098;2024-01-11T10:06:02;35.63;;;18.73;;
76284;SDS011;71676;50.998;7.098;2024-01-11T10:08:30;26.20;;;14.15;;
76284;SDS011;71676;50.998;7.098;2024-01-11T10:10:58;32.13;;;17.05;;
76284;SDS011;71676;50.998;7.098;2024-01-11T10:13:26;29.00;;;16.27;;
76284;SDS011;71676;50.998;7.098;2024-01-11T10:16:04;34.65;;;16.60;;
76284;SDS011;71676;50.998;7.098;2024-01-11T10:18:31;23.33;;;13.23;;
76284;SDS011;71676;50.998;7.098;2024-01-11T10:20:58;33.63;;;18.10;;
76284;SDS011;71676;50.998;7.098;2024-01-11T10:23:24;22.73;;;13.25;;
76284;SDS011;71676;50.998;7.098;2024-01-11T10:25:55;32.67;;;17.23;;
76284;SDS011;71676;50.998;7.098;2024-01-11T10:28:22;33.60;;;16.23;;
76284;SDS011;71676;50.998;7.098;2024-01-11T10:33:18;31.17;;;16.85;;
76284;SDS011;71676;50.998;7.098;2024-01-11T10:35:46;34.83;;;16.67;;
76284;SDS011;71676;50.998;7.098;2024-01-11T10:38:13;31.27;;;15.60;;
76284;SDS011;71676;50.998;7.098;2024-01-11T10:40:41;33.72;;;18.17;;
76284;SDS011;71676;50.998;7.098;2024-01-11T10:43:09;36.38;;;18.50;;
76284;SDS011;71676;50.998;7.098;2024-01-11T10:45:38;28.52;;;15.35;;
76284;SDS011;71676;50.998;7.098;2024-01-11T10:48:07;34.30;;;18.42;;
76284;SDS011;71676;50.998;7.098;2024-01-11T10:50:41;35.63;;;17.45;;
76284;SDS011;71676;50.998;7.098;2024-01-11T10:53:12;33.03;;;18.08;;
76284;SDS011;71676;50.998;7.098;2024-01-11T10:55:47;34.42;;;20.60;;
76284;SDS011;71676;50.998;7.098;2024-01-11T10:58:16;38.15;;;20.20;;
76284;SDS011;71676;50.998;7.098;2024-01-11T11:00:46;31.75;;;18.33;;
76284;SDS011;71676;50.998;7.098;2024-01-11T11:03:14;36.60;;;19.77;;
76284;SDS011;71676;50.998;7.098;2024-01-11T11:05:44;35.17;;;19.52;;
76284;SDS011;71676;50.998;7.098;2024-01-11T11:08:11;31.77;;;19.38;;
76284;SDS011;71676;50.998;7.098;2024-01-11T11:10:39;35.35;;;19.70;;
76284;SDS011;71676;50.998;7.098;2024-01-11T11:13:08;38.20;;;20.17;;
76284;SDS011;71676;50.998;7.098;2024-01-11T11:15:37;37.72;;;20.50;;
76284;SDS011;71676;50.998;7.098;2024-01-11T11:18:05;37.83;;;20.77;;
76284;SDS011;71676;50.998;7.098;2024-01-11T11:20:32;35.67;;;19.17;;
76284;SDS011;71676;50.998;7.098;2024-01-11T11:23:02;35.35;;;19.55;;
76284;SDS011;71676;50.998;7.098;2024-01-11T11:25:30;33.38;;;18.63;;
76284;SDS011;71676;50.998;7.098;2024-01-11T11:27:57;36.95;;;19.90;;
76284;SDS011;71676;50.998;7.098;2024-01-11T11:30:24;36.72;;;19.88;;
76284;SDS011;71676;50.998;7.098;2024-01-11T11:32:52;35.33;;;17.83;;
76284;SDS011;71676;50.998;7.098;2024-01-11T11:35:22;38.28;;;19.88;;
76284;SDS011;71676;50.998;7.098;2024-01-11T11:37:53;33.00;;;16.95;;
76284;SDS011;71676;50.998;7.098;2024-01-11T11:40:21;31.77;;;16.67;;
76284;SDS011;71676;50.998;7.098;2024-01-11T11:42:48;33.63;;;17.65;;
76284;SDS011;71676;50.998;7.098;2024-01-11T11:45:23;35.70;;;17.80;;
76284;SDS011;71676;50.998;7.098;2024-01-11T11:47:53;34.97;;;18.75;;
76284;SDS011;71676;50.998;7.098;2024-01-11T11:50:21;33.05;;;17.30;;
76284;SDS011;71676;50.998;7.098;2024-01-11T11:52:53;38.05;;;19.40;;
76284;SDS011;71676;50.998;7.098;2024-01-11T11:55:20;33.05;;;18.33;;
76284;SDS011;71676;50.998;7.098;2024-01-11T11:57:48;31.50;;;15.93;;
76284;SDS011;71676;50.998;7.098;2024-01-11T12:00:16;32.47;;;17.23;;
76284;SDS011;71676;50.998;7.098;2024-01-11T12:02:43;30.58;;;16.05;;
76284;SDS011;71676;50.998;7.098;2024-01-11T12:05:13;35.58;;;17.00;;
76284;SDS011;71676;50.998;7.098;2024-01-11T12:07:40;34.35;;;19.23;;
76284;SDS011;71676;50.998;7.098;2024-01-11T12:10:07;35.28;;;19.80;;
76284;SDS011;71676;50.998;7.098;2024-01-11T12:12:34;33.88;;;18.73;;
76284;SDS011;71676;50.998;7.098;2024-01-11T12:15:02;37.92;;;18.63;;
76284;SDS011;71676;50.998;7.098;2024-01-11T12:17:29;38.53;;;20.17;;
76284;SDS011;71676;50.998;7.098;2024-01-11T12:19:56;36.25;;;20.38;;
76284;SDS011;71676;50.998;7.098;2024-01-11T12:22:24;38.85;;;20.20;;
76284;SDS011;71676;50.998;7.098;2024-01-11T12:24:51;30.23;;;17.15;;
76284;SDS011;71676;50.998;7.098;2024-01-11T12:27:18;36.90;;;20.33;;
76284;SDS011;71676;50.998;7.098;2024-01-11T12:29:46;35.28;;;21.38;;
76284;SDS011;71676;50.998;7.098;2024-01-11T12:32:13;31.95;;;16.65;;
76284;SDS011;71676;50.998;7.098;2024-01-11T12:34:41;37.25;;;20.75;;
76284;SDS011;71676;50.998;7.098;2024-01-11T12:37:09;38.28;;;21.20;;
76284;SDS011;71676;50.998;7.098;2024-01-11T12:42:05;38.15;;;19.95;;
76284;SDS011;71676;50.998;7.098;2024-01-11T12:44:32;39.67;;;20.40;;
76284;SDS011;71676;50.998;7.098;2024-01-11T12:47:00;37.92;;;21.08;;
76284;SDS011;71676;50.998;7.098;2024-01-11T12:49:27;40.40;;;20.58;;
76284;SDS011;71676;50.998;7.098;2024-01-11T12:51:54;38.22;;;20.42;;
76284;SDS011;71676;50.998;7.098;2024-01-11T12:56:49;37.53;;;20.13;;
76284;SDS011;71676;50.998;7.098;2024-01-11T12:59:16;38.15;;;19.20;;
76284;SDS011;71676;50.998;7.098;2024-01-11T13:01:43;36.10;;;19.33;;
76284;SDS011;71676;50.998;7.098;2024-01-11T13:06:36;36.38;;;17.42;;
76284;SDS011;71676;50.998;7.098;2024-01-11T13:09:03;36.85;;;19.77;;
76284;SDS011;71676;50.998;7.098;2024-01-11T13:11:33;35.72;;;20.27;;
76284;SDS011;71676;50.998;7.098;2024-01-11T13:14:01;35.55;;;19.73;;
76284;SDS011;71676;50.998;7.098;2024-01-11T13:16:31;39.33;;;19.08;;
76284;SDS011;71676;50.998;7.098;2024-01-11T13:18:58;37.50;;;19.77;;
76284;SDS011;71676;50.998;7.098;2024-01-11T13:21:25;33.60;;;20.50;;
76284;SDS011;71676;50.998;7.098;2024-01-11T13:23:51;34.22;;;19.05;;
76284;SDS011;71676;50.998;7.098;2024-01-11T13:26:18;31.10;;;17.10;;
76284;SDS011;71676;50.998;7.098;2024-01-11T13:28:45;35.25;;;20.23;;
76284;SDS011;71676;50.998;7.098;2024-01-11T13:31:13;34.50;;;19.05;;
76284;SDS011;71676;50.998;7.098;2024-01-11T13:33:40;37.33;;;20.63;;
76284;SDS011;71676;50.998;7.098;2024-01-11T13:36:06;35.13;;;20.15;;
76284;SDS011;71676;50.998;7.098;2024-01-11T13:38:34;32.85;;;18.05;;
76284;SDS011;71676;50.998;7.098;2024-01-11T13:41:01;44.70;;;20.60;;
76284;SDS011;71676;50.998;7.098;2024-01-11T13:43:27;31.40;;;18.92;;
76284;SDS011;71676;50.998;7.098;2024-01-11T13:45:54;31.98;;;18.75;;
76284;SDS011;71676;50.998;7.098;2024-01-11T13:48:22;34.63;;;19.83;;
76284;SDS011;71676;50.998;7.098;2024-01-11T13:50:49;33.10;;;18.92;;
76284;SDS011;71676;50.998;7.098;2024-01-11T13:53:16;38.60;;;21.60;;
76284;SDS011;71676;50.998;7.098;2024-01-11T13:55:42;33.67;;;16.45;;
76284;SDS011;71676;50.998;7.098;2024-01-11T13:58:09;36.05;;;18.70;;
76284;SDS011;71676;50.998;7.098;2024-01-11T14:00:37;36.42;;;19.63;;
76284;SDS011;71676;50.998;7.098;2024-01-11T14:03:04;36.13;;;18.35;;
76284;SDS011;71676;50.998;7.098;2024-01-11T14:05:33;40.40;;;19.85;;
76284;SDS011;71676;50.998;7.098;2024-01-11T14:08:00;34.28;;;20.42;;
76284;SDS011;71676;50.998;7.098;2024-01-11T14:10:30;37.85;;;18.92;;
76284;SDS011;71676;50.998;7.098;2024-01-11T14:12:57;35.83;;;20.50;;
76284;SDS011;71676;50.998;7.098;2024-01-11T14:15:24;39.92;;;21.52;;
76284;SDS011;71676;50.998;7.098;2024-01-11T14:17:50;34.88;;;18.92;;
76284;SDS011;71676;50.998;7.098;2024-01-11T14:20:17;41.60;;;20.92;;
76284;SDS011;71676;50.998;7.098;2024-01-11T14:22:46;35.83;;;20.40;;
76284;SDS011;71676;50.998;7.098;2024-01-11T14:25:14;38.72;;;18.98;;
76284;SDS011;71676;50.998;7.098;2024-01-11T14:27:41;39.35;;;18.98;;
76284;SDS011;71676;50.998;7.098;2024-01-11T14:30:09;40.78;;;21.15;;
76284;SDS011;71676;50.998;7.098;2024-01-11T14:32:37;37.22;;;19.50;;
76284;SDS011;71676;50.998;7.098;2024-01-11T14:35:04;39.55;;;20.08;;
76284;SDS011;71676;50.998;7.098;2024-01-11T14:37:32;38.97;;;20.58;;
76284;SDS011;71676;50.998;7.098;2024-01-11T14:40:02;42.40;;;20.23;;
76284;SDS011;71676;50.998;7.098;2024-01-11T14:42:29;37.40;;;19.80;;
76284;SDS011;71676;50.998;7.098;2024-01-11T14:44:56;36.83;;;19.77;;
76284;SDS011;71676;50.998;7.098;2024-01-11T14:47:23;35.40;;;20.13;;
76284;SDS011;71676;50.998;7.098;2024-01-11T14:49:50;38.75;;;20.23;;
76284;SDS011;71676;50.998;7.098;2024-01-11T14:52:17;36.88;;;19.75;;
76284;SDS011;71676;50.998;7.098;2024-01-11T14:54:44;39.42;;;20.40;;
76284;SDS011;71676;50.998;7.098;2024-01-11T14:57:13;36.88;;;20.00;;
76284;SDS011;71676;50.998;7.098;2024-01-11T14:59:40;39.65;;;21.77;;
76284;SDS011;71676;50.998;7.098;2024-01-11T15:02:07;38.13;;;19.52;;
76284;SDS011;71676;50.998;7.098;2024-01-11T15:04:34;39.40;;;19.80;;
76284;SDS011;71676;50.998;7.098;2024-01-11T15:07:01;37.97;;;20.35;;
76284;SDS011;71676;50.998;7.098;2024-01-11T15:09:27;36.05;;;20.17;;